Terminal Aerodrome Forecast
Issued by NWS

Home | Current Version | Previous Version | Graphics & Text | Print | Product List | Glossary On
Versions: 1 2 3 4 5 6 7 8 9 10 11 12 13 14 15 16 17 18 19 20 21 22 23 24
183
FTUS45 KGGW 162320
TAFGDV
TAF
KGDV 162320Z 1700/1724 08007KT P6SM VCSH FEW100
     FM170200 12008KT P6SM SCT120
     FM171700 27009KT P6SM SCT170
     FM172100 29014KT P6SM SCT140=

USA.gov is the U.S. government's official web portal to all federal, state and local government web resources and services.